sensor_id;sensor_type;location;lat;lon;timestamp;P1;durP1;ratioP1;P2;durP2;ratioP2
21848;SDS011;11089;49.852;19.700;2023-07-24T00:01:50;7.57;;;2.95;;
21848;SDS011;11089;49.852;19.700;2023-07-24T00:04:51;3.85;;;2.65;;
21848;SDS011;11089;49.852;19.700;2023-07-24T00:07:52;6.03;;;3.33;;
21848;SDS011;11089;49.852;19.700;2023-07-24T00:10:52;4.25;;;3.00;;
21848;SDS011;11089;49.852;19.700;2023-07-24T00:13:53;4.28;;;2.97;;
21848;SDS011;11089;49.852;19.700;2023-07-24T00:16:54;6.18;;;3.60;;
21848;SDS011;11089;49.852;19.700;2023-07-24T00:19:55;6.72;;;3.00;;
21848;SDS011;11089;49.852;19.700;2023-07-24T00:22:56;8.13;;;3.53;;
21848;SDS011;11089;49.852;19.700;2023-07-24T00:25:56;5.07;;;3.17;;
21848;SDS011;11089;49.852;19.700;2023-07-24T00:28:58;6.10;;;3.33;;
21848;SDS011;11089;49.852;19.700;2023-07-24T00:31:59;6.80;;;3.42;;
21848;SDS011;11089;49.852;19.700;2023-07-24T00:35:00;7.22;;;3.80;;
21848;SDS011;11089;49.852;19.700;2023-07-24T00:38:01;5.45;;;3.13;;
21848;SDS011;11089;49.852;19.700;2023-07-24T00:41:02;6.47;;;3.50;;
21848;SDS011;11089;49.852;19.700;2023-07-24T00:44:03;5.65;;;3.60;;
21848;SDS011;11089;49.852;19.700;2023-07-24T00:47:04;7.50;;;3.58;;
21848;SDS011;11089;49.852;19.700;2023-07-24T00:50:05;5.22;;;3.60;;
21848;SDS011;11089;49.852;19.700;2023-07-24T00:53:07;4.20;;;3.00;;
21848;SDS011;11089;49.852;19.700;2023-07-24T00:56:08;6.38;;;3.72;;
21848;SDS011;11089;49.852;19.700;2023-07-24T00:59:10;5.63;;;3.20;;
21848;SDS011;11089;49.852;19.700;2023-07-24T01:02:11;7.57;;;3.60;;
21848;SDS011;11089;49.852;19.700;2023-07-24T01:05:14;5.97;;;2.97;;
21848;SDS011;11089;49.852;19.700;2023-07-24T01:08:17;6.90;;;2.90;;
21848;SDS011;11089;49.852;19.700;2023-07-24T01:11:19;5.07;;;3.42;;
21848;SDS011;11089;49.852;19.700;2023-07-24T01:14:25;4.95;;;3.70;;
21848;SDS011;11089;49.852;19.700;2023-07-24T01:17:32;6.85;;;3.42;;
21848;SDS011;11089;49.852;19.700;2023-07-24T01:20:37;5.68;;;3.90;;
21848;SDS011;11089;49.852;19.700;2023-07-24T01:27:23;9.68;;;4.03;;
21848;SDS011;11089;49.852;19.700;2023-07-24T01:30:24;5.60;;;3.38;;
21848;SDS011;11089;49.852;19.700;2023-07-24T01:33:25;6.68;;;3.63;;
21848;SDS011;11089;49.852;19.700;2023-07-24T01:36:26;6.03;;;3.10;;
21848;SDS011;11089;49.852;19.700;2023-07-24T01:39:27;4.80;;;3.10;;
21848;SDS011;11089;49.852;19.700;2023-07-24T01:42:28;7.15;;;3.83;;
21848;SDS011;11089;49.852;19.700;2023-07-24T01:45:30;7.97;;;3.33;;
21848;SDS011;11089;49.852;19.700;2023-07-24T01:48:31;5.35;;;3.70;;
21848;SDS011;11089;49.852;19.700;2023-07-24T01:51:32;6.00;;;3.20;;
21848;SDS011;11089;49.852;19.700;2023-07-24T01:54:33;6.22;;;3.50;;
21848;SDS011;11089;49.852;19.700;2023-07-24T01:57:34;5.25;;;3.50;;
21848;SDS011;11089;49.852;19.700;2023-07-24T02:00:35;6.57;;;3.45;;
21848;SDS011;11089;49.852;19.700;2023-07-24T02:03:36;5.63;;;3.47;;
21848;SDS011;11089;49.852;19.700;2023-07-24T02:06:39;5.47;;;3.47;;
21848;SDS011;11089;49.852;19.700;2023-07-24T02:09:40;6.78;;;3.38;;
21848;SDS011;11089;49.852;19.700;2023-07-24T02:12:41;4.97;;;3.30;;
21848;SDS011;11089;49.852;19.700;2023-07-24T02:15:41;6.47;;;3.72;;
21848;SDS011;11089;49.852;19.700;2023-07-24T02:18:42;6.45;;;4.30;;
21848;SDS011;11089;49.852;19.700;2023-07-24T02:21:43;6.85;;;3.80;;
21848;SDS011;11089;49.852;19.700;2023-07-24T02:24:44;5.30;;;3.30;;
21848;SDS011;11089;49.852;19.700;2023-07-24T02:27:45;5.03;;;3.28;;
21848;SDS011;11089;49.852;19.700;2023-07-24T02:30:46;5.05;;;3.30;;
21848;SDS011;11089;49.852;19.700;2023-07-24T02:33:47;8.48;;;3.92;;
21848;SDS011;11089;49.852;19.700;2023-07-24T02:36:48;5.07;;;3.58;;
21848;SDS011;11089;49.852;19.700;2023-07-24T02:39:49;5.95;;;3.90;;
21848;SDS011;11089;49.852;19.700;2023-07-24T02:42:51;5.35;;;3.50;;
21848;SDS011;11089;49.852;19.700;2023-07-24T02:45:52;6.70;;;3.40;;
21848;SDS011;11089;49.852;19.700;2023-07-24T02:48:53;5.25;;;3.75;;
21848;SDS011;11089;49.852;19.700;2023-07-24T02:51:54;5.20;;;3.67;;
21848;SDS011;11089;49.852;19.700;2023-07-24T02:54:55;7.47;;;3.58;;
21848;SDS011;11089;49.852;19.700;2023-07-24T02:57:55;7.68;;;3.30;;
21848;SDS011;11089;49.852;19.700;2023-07-24T03:01:03;6.10;;;3.13;;
21848;SDS011;11089;49.852;19.700;2023-07-24T03:04:06;6.03;;;3.67;;
21848;SDS011;11089;49.852;19.700;2023-07-24T03:07:07;7.10;;;3.97;;
21848;SDS011;11089;49.852;19.700;2023-07-24T03:10:08;6.57;;;3.88;;
21848;SDS011;11089;49.852;19.700;2023-07-24T03:13:09;5.95;;;3.65;;
21848;SDS011;11089;49.852;19.700;2023-07-24T03:16:10;5.13;;;3.30;;
21848;SDS011;11089;49.852;19.700;2023-07-24T03:19:11;28.00;;;4.43;;
21848;SDS011;11089;49.852;19.700;2023-07-24T03:22:12;5.30;;;3.30;;
21848;SDS011;11089;49.852;19.700;2023-07-24T03:25:13;6.13;;;4.20;;
21848;SDS011;11089;49.852;19.700;2023-07-24T03:28:14;6.50;;;4.30;;
21848;SDS011;11089;49.852;19.700;2023-07-24T03:31:15;7.88;;;3.85;;
21848;SDS011;11089;49.852;19.700;2023-07-24T03:34:16;6.47;;;3.92;;
21848;SDS011;11089;49.852;19.700;2023-07-24T03:37:16;8.52;;;5.03;;
21848;SDS011;11089;49.852;19.700;2023-07-24T03:40:17;6.70;;;3.80;;
21848;SDS011;11089;49.852;19.700;2023-07-24T03:43:18;7.45;;;4.18;;
21848;SDS011;11089;49.852;19.700;2023-07-24T03:46:19;6.53;;;3.70;;
21848;SDS011;11089;49.852;19.700;2023-07-24T03:49:20;7.20;;;3.60;;
21848;SDS011;11089;49.852;19.700;2023-07-24T03:52:22;12.48;;;4.45;;
21848;SDS011;11089;49.852;19.700;2023-07-24T03:55:23;5.75;;;3.58;;
21848;SDS011;11089;49.852;19.700;2023-07-24T03:58:24;4.75;;;3.47;;
21848;SDS011;11089;49.852;19.700;2023-07-24T04:01:25;7.30;;;3.85;;
21848;SDS011;11089;49.852;19.700;2023-07-24T04:04:26;5.97;;;3.63;;
21848;SDS011;11089;49.852;19.700;2023-07-24T04:07:27;6.45;;;3.85;;
21848;SDS011;11089;49.852;19.700;2023-07-24T04:10:27;5.47;;;3.60;;
21848;SDS011;11089;49.852;19.700;2023-07-24T04:13:30;14.50;;;4.78;;
21848;SDS011;11089;49.852;19.700;2023-07-24T04:16:31;6.57;;;3.75;;
21848;SDS011;11089;49.852;19.700;2023-07-24T04:19:32;7.55;;;4.05;;
21848;SDS011;11089;49.852;19.700;2023-07-24T04:22:33;7.18;;;4.13;;
21848;SDS011;11089;49.852;19.700;2023-07-24T04:25:34;6.28;;;3.97;;
21848;SDS011;11089;49.852;19.700;2023-07-24T04:28:34;8.57;;;4.78;;
21848;SDS011;11089;49.852;19.700;2023-07-24T04:31:35;8.73;;;5.18;;
21848;SDS011;11089;49.852;19.700;2023-07-24T04:34:36;8.18;;;4.65;;
21848;SDS011;11089;49.852;19.700;2023-07-24T04:37:37;10.82;;;4.93;;
21848;SDS011;11089;49.852;19.700;2023-07-24T04:40:38;8.88;;;4.70;;
21848;SDS011;11089;49.852;19.700;2023-07-24T04:43:39;7.97;;;4.30;;
21848;SDS011;11089;49.852;19.700;2023-07-24T04:46:40;10.38;;;4.50;;
21848;SDS011;11089;49.852;19.700;2023-07-24T04:49:41;7.35;;;4.03;;
21848;SDS011;11089;49.852;19.700;2023-07-24T04:52:42;6.10;;;3.90;;
21848;SDS011;11089;49.852;19.700;2023-07-24T04:55:45;6.78;;;4.10;;
21848;SDS011;11089;49.852;19.700;2023-07-24T04:58:46;7.88;;;4.13;;
21848;SDS011;11089;49.852;19.700;2023-07-24T05:01:46;5.97;;;3.95;;
21848;SDS011;11089;49.852;19.700;2023-07-24T05:04:47;10.73;;;4.90;;
21848;SDS011;11089;49.852;19.700;2023-07-24T05:07:48;8.23;;;4.47;;
21848;SDS011;11089;49.852;19.700;2023-07-24T05:10:55;6.03;;;4.55;;
21848;SDS011;11089;49.852;19.700;2023-07-24T05:13:57;5.75;;;4.00;;
21848;SDS011;11089;49.852;19.700;2023-07-24T05:16:58;7.10;;;4.88;;
21848;SDS011;11089;49.852;19.700;2023-07-24T05:19:58;7.05;;;4.30;;
21848;SDS011;11089;49.852;19.700;2023-07-24T05:22:59;7.95;;;5.00;;
21848;SDS011;11089;49.852;19.700;2023-07-24T05:26:01;9.05;;;4.53;;
21848;SDS011;11089;49.852;19.700;2023-07-24T05:29:02;10.15;;;5.00;;
21848;SDS011;11089;49.852;19.700;2023-07-24T05:32:03;8.60;;;5.05;;
21848;SDS011;11089;49.852;19.700;2023-07-24T05:35:04;8.50;;;4.85;;
21848;SDS011;11089;49.852;19.700;2023-07-24T05:38:05;9.45;;;5.05;;
21848;SDS011;11089;49.852;19.700;2023-07-24T05:41:06;6.03;;;4.53;;
21848;SDS011;11089;49.852;19.700;2023-07-24T05:44:07;8.68;;;4.90;;
21848;SDS011;11089;49.852;19.700;2023-07-24T05:47:08;7.00;;;4.47;;
21848;SDS011;11089;49.852;19.700;2023-07-24T05:50:09;9.07;;;4.80;;
21848;SDS011;11089;49.852;19.700;2023-07-24T05:53:10;6.82;;;5.18;;
21848;SDS011;11089;49.852;19.700;2023-07-24T05:56:11;10.25;;;5.50;;
21848;SDS011;11089;49.852;19.700;2023-07-24T05:59:11;11.55;;;5.38;;
21848;SDS011;11089;49.852;19.700;2023-07-24T06:02:13;7.68;;;4.70;;
21848;SDS011;11089;49.852;19.700;2023-07-24T06:05:14;7.95;;;5.47;;
21848;SDS011;11089;49.852;19.700;2023-07-24T06:08:15;7.65;;;4.75;;
21848;SDS011;11089;49.852;19.700;2023-07-24T06:11:16;7.40;;;5.47;;
21848;SDS011;11089;49.852;19.700;2023-07-24T06:14:16;8.25;;;4.88;;
21848;SDS011;11089;49.852;19.700;2023-07-24T06:17:17;9.30;;;5.50;;
21848;SDS011;11089;49.852;19.700;2023-07-24T06:20:18;9.10;;;5.63;;
21848;SDS011;11089;49.852;19.700;2023-07-24T06:23:19;8.45;;;5.30;;
21848;SDS011;11089;49.852;19.700;2023-07-24T06:26:20;8.40;;;5.22;;
21848;SDS011;11089;49.852;19.700;2023-07-24T06:29:21;8.23;;;5.22;;
21848;SDS011;11089;49.852;19.700;2023-07-24T06:32:22;8.63;;;5.00;;
21848;SDS011;11089;49.852;19.700;2023-07-24T06:35:23;8.15;;;5.35;;
21848;SDS011;11089;49.852;19.700;2023-07-24T06:38:24;9.52;;;5.28;;
21848;SDS011;11089;49.852;19.700;2023-07-24T06:41:25;8.10;;;5.40;;
21848;SDS011;11089;49.852;19.700;2023-07-24T06:44:26;9.88;;;5.22;;
21848;SDS011;11089;49.852;19.700;2023-07-24T06:47:26;8.82;;;5.38;;
21848;SDS011;11089;49.852;19.700;2023-07-24T06:50:27;12.02;;;6.00;;
21848;SDS011;11089;49.852;19.700;2023-07-24T06:53:28;8.52;;;5.57;;
21848;SDS011;11089;49.852;19.700;2023-07-24T06:56:29;8.05;;;5.60;;
21848;SDS011;11089;49.852;19.700;2023-07-24T06:59:30;7.95;;;5.47;;
21848;SDS011;11089;49.852;19.700;2023-07-24T07:02:31;8.88;;;5.20;;
21848;SDS011;11089;49.852;19.700;2023-07-24T07:05:32;7.95;;;5.30;;
21848;SDS011;11089;49.852;19.700;2023-07-24T07:08:33;8.07;;;5.30;;
21848;SDS011;11089;49.852;19.700;2023-07-24T07:11:34;8.88;;;5.25;;
21848;SDS011;11089;49.852;19.700;2023-07-24T07:14:35;9.80;;;5.25;;
21848;SDS011;11089;49.852;19.700;2023-07-24T07:17:36;8.52;;;5.55;;
21848;SDS011;11089;49.852;19.700;2023-07-24T07:20:37;8.73;;;5.05;;
21848;SDS011;11089;49.852;19.700;2023-07-24T07:23:38;10.80;;;5.65;;
21848;SDS011;11089;49.852;19.700;2023-07-24T07:26:38;8.45;;;5.57;;
21848;SDS011;11089;49.852;19.700;2023-07-24T07:29:39;9.00;;;5.63;;
21848;SDS011;11089;49.852;19.700;2023-07-24T07:32:40;8.15;;;5.72;;
21848;SDS011;11089;49.852;19.700;2023-07-24T07:35:41;9.73;;;5.82;;
21848;SDS011;11089;49.852;19.700;2023-07-24T07:38:43;9.25;;;6.13;;
21848;SDS011;11089;49.852;19.700;2023-07-24T07:41:44;11.32;;;5.82;;
21848;SDS011;11089;49.852;19.700;2023-07-24T07:44:45;11.40;;;5.57;;
21848;SDS011;11089;49.852;19.700;2023-07-24T07:47:46;12.50;;;6.65;;
21848;SDS011;11089;49.852;19.700;2023-07-24T07:50:51;9.45;;;5.45;;
21848;SDS011;11089;49.852;19.700;2023-07-24T07:53:52;10.38;;;6.15;;
21848;SDS011;11089;49.852;19.700;2023-07-24T07:56:53;9.85;;;5.43;;
21848;SDS011;11089;49.852;19.700;2023-07-24T07:59:53;9.00;;;5.80;;
21848;SDS011;11089;49.852;19.700;2023-07-24T08:02:54;11.60;;;6.28;;
21848;SDS011;11089;49.852;19.700;2023-07-24T08:05:58;10.80;;;6.43;;
21848;SDS011;11089;49.852;19.700;2023-07-24T08:08:59;13.05;;;6.68;;
21848;SDS011;11089;49.852;19.700;2023-07-24T08:12:00;9.60;;;5.57;;
21848;SDS011;11089;49.852;19.700;2023-07-24T08:15:00;10.35;;;5.63;;
21848;SDS011;11089;49.852;19.700;2023-07-24T08:18:02;8.73;;;5.47;;
21848;SDS011;11089;49.852;19.700;2023-07-24T08:21:04;9.10;;;5.72;;
21848;SDS011;11089;49.852;19.700;2023-07-24T08:24:05;9.00;;;5.68;;
21848;SDS011;11089;49.852;19.700;2023-07-24T08:27:07;8.60;;;5.60;;
21848;SDS011;11089;49.852;19.700;2023-07-24T08:30:07;9.45;;;5.65;;
21848;SDS011;11089;49.852;19.700;2023-07-24T08:33:08;8.18;;;5.25;;
21848;SDS011;11089;49.852;19.700;2023-07-24T08:36:09;8.13;;;5.13;;
21848;SDS011;11089;49.852;19.700;2023-07-24T08:39:12;10.23;;;5.50;;
21848;SDS011;11089;49.852;19.700;2023-07-24T08:42:13;8.57;;;5.22;;
21848;SDS011;11089;49.852;19.700;2023-07-24T08:45:14;8.05;;;5.25;;
21848;SDS011;11089;49.852;19.700;2023-07-24T08:48:16;8.90;;;5.28;;
21848;SDS011;11089;49.852;19.700;2023-07-24T08:51:20;8.43;;;5.00;;
21848;SDS011;11089;49.852;19.700;2023-07-24T08:54:22;8.05;;;5.15;;
21848;SDS011;11089;49.852;19.700;2023-07-24T08:57:25;7.20;;;4.65;;
21848;SDS011;11089;49.852;19.700;2023-07-24T09:00:26;6.78;;;4.10;;
21848;SDS011;11089;49.852;19.700;2023-07-24T09:03:28;8.13;;;4.82;;
21848;SDS011;11089;49.852;19.700;2023-07-24T09:06:30;7.63;;;5.05;;
21848;SDS011;11089;49.852;19.700;2023-07-24T09:09:31;7.88;;;4.80;;
21848;SDS011;11089;49.852;19.700;2023-07-24T09:12:31;7.30;;;4.95;;
21848;SDS011;11089;49.852;19.700;2023-07-24T09:15:42;6.80;;;5.10;;
21848;SDS011;11089;49.852;19.700;2023-07-24T09:18:43;8.80;;;5.25;;
21848;SDS011;11089;49.852;19.700;2023-07-24T09:21:44;9.63;;;5.40;;
21848;SDS011;11089;49.852;19.700;2023-07-24T09:24:49;9.32;;;5.15;;
21848;SDS011;11089;49.852;19.700;2023-07-24T09:27:54;10.07;;;6.47;;
21848;SDS011;11089;49.852;19.700;2023-07-24T09:30:56;8.55;;;5.68;;
21848;SDS011;11089;49.852;19.700;2023-07-24T09:33:58;7.10;;;5.30;;
21848;SDS011;11089;49.852;19.700;2023-07-24T09:36:59;8.57;;;5.28;;
21848;SDS011;11089;49.852;19.700;2023-07-24T09:40:00;7.90;;;5.28;;
21848;SDS011;11089;49.852;19.700;2023-07-24T09:43:13;8.38;;;5.72;;
21848;SDS011;11089;49.852;19.700;2023-07-24T09:46:19;10.25;;;6.38;;
21848;SDS011;11089;49.852;19.700;2023-07-24T09:49:19;9.00;;;5.95;;
21848;SDS011;11089;49.852;19.700;2023-07-24T09:52:21;11.02;;;5.70;;
21848;SDS011;11089;49.852;19.700;2023-07-24T09:55:29;9.80;;;5.78;;
21848;SDS011;11089;49.852;19.700;2023-07-24T09:58:37;8.55;;;5.57;;
21848;SDS011;11089;49.852;19.700;2023-07-24T10:01:40;6.93;;;5.00;;
21848;SDS011;11089;49.852;19.700;2023-07-24T10:04:43;9.98;;;6.15;;
21848;SDS011;11089;49.852;19.700;2023-07-24T10:07:46;8.95;;;5.13;;
21848;SDS011;11089;49.852;19.700;2023-07-24T10:10:48;8.48;;;5.18;;
21848;SDS011;11089;49.852;19.700;2023-07-24T10:13:53;8.70;;;5.63;;
21848;SDS011;11089;49.852;19.700;2023-07-24T10:16:55;8.32;;;6.25;;
21848;SDS011;11089;49.852;19.700;2023-07-24T10:20:01;9.35;;;6.30;;
21848;SDS011;11089;49.852;19.700;2023-07-24T10:23:04;9.30;;;5.95;;
21848;SDS011;11089;49.852;19.700;2023-07-24T10:26:06;9.00;;;5.93;;
21848;SDS011;11089;49.852;19.700;2023-07-24T10:29:09;9.02;;;6.10;;
21848;SDS011;11089;49.852;19.700;2023-07-24T10:32:16;8.20;;;5.57;;
21848;SDS011;11089;49.852;19.700;2023-07-24T10:35:18;10.25;;;5.95;;
21848;SDS011;11089;49.852;19.700;2023-07-24T10:38:31;10.27;;;6.38;;
21848;SDS011;11089;49.852;19.700;2023-07-24T10:41:36;9.25;;;6.38;;
21848;SDS011;11089;49.852;19.700;2023-07-24T10:44:38;10.80;;;6.70;;
21848;SDS011;11089;49.852;19.700;2023-07-24T10:47:39;12.05;;;6.75;;
21848;SDS011;11089;49.852;19.700;2023-07-24T10:50:41;11.43;;;6.10;;
21848;SDS011;11089;49.852;19.700;2023-07-24T10:53:46;10.57;;;6.93;;
21848;SDS011;11089;49.852;19.700;2023-07-24T10:56:48;11.13;;;6.57;;
21848;SDS011;11089;49.852;19.700;2023-07-24T10:59:49;9.65;;;6.32;;
21848;SDS011;11089;49.852;19.700;2023-07-24T11:02:52;9.75;;;6.45;;
21848;SDS011;11089;49.852;19.700;2023-07-24T11:05:54;10.40;;;6.30;;
21848;SDS011;11089;49.852;19.700;2023-07-24T11:08:57;10.18;;;6.45;;
21848;SDS011;11089;49.852;19.700;2023-07-24T11:12:00;15.38;;;7.10;;
21848;SDS011;11089;49.852;19.700;2023-07-24T11:15:10;9.82;;;6.25;;
21848;SDS011;11089;49.852;19.700;2023-07-24T11:18:12;9.88;;;6.03;;
21848;SDS011;11089;49.852;19.700;2023-07-24T11:21:13;11.60;;;6.95;;
21848;SDS011;11089;49.852;19.700;2023-07-24T11:24:17;10.40;;;5.82;;
21848;SDS011;11089;49.852;19.700;2023-07-24T11:27:18;13.52;;;7.10;;
21848;SDS011;11089;49.852;19.700;2023-07-24T11:30:20;9.63;;;6.20;;
21848;SDS011;11089;49.852;19.700;2023-07-24T11:33:22;9.30;;;6.18;;
21848;SDS011;11089;49.852;19.700;2023-07-24T11:36:23;10.20;;;6.28;;
21848;SDS011;11089;49.852;19.700;2023-07-24T11:39:24;10.45;;;6.60;;
21848;SDS011;11089;49.852;19.700;2023-07-24T11:42:26;10.75;;;6.28;;
21848;SDS011;11089;49.852;19.700;2023-07-24T11:45:27;12.57;;;6.47;;
21848;SDS011;11089;49.852;19.700;2023-07-24T11:48:29;11.57;;;6.70;;
21848;SDS011;11089;49.852;19.700;2023-07-24T11:51:30;11.05;;;6.57;;
21848;SDS011;11089;49.852;19.700;2023-07-24T11:54:33;10.25;;;6.07;;
21848;SDS011;11089;49.852;19.700;2023-07-24T11:57:35;10.13;;;6.03;;
21848;SDS011;11089;49.852;19.700;2023-07-24T12:00:36;11.80;;;6.72;;
21848;SDS011;11089;49.852;19.700;2023-07-24T12:03:37;12.00;;;7.20;;
21848;SDS011;11089;49.852;19.700;2023-07-24T12:06:38;9.15;;;6.30;;
21848;SDS011;11089;49.852;19.700;2023-07-24T12:09:39;9.43;;;5.68;;
21848;SDS011;11089;49.852;19.700;2023-07-24T12:12:43;9.70;;;6.38;;
21848;SDS011;11089;49.852;19.700;2023-07-24T12:15:46;10.55;;;6.60;;
21848;SDS011;11089;49.852;19.700;2023-07-24T12:18:47;8.80;;;5.97;;
21848;SDS011;11089;49.852;19.700;2023-07-24T12:21:47;10.93;;;6.85;;
21848;SDS011;11089;49.852;19.700;2023-07-24T12:24:48;11.07;;;6.88;;
21848;SDS011;11089;49.852;19.700;2023-07-24T12:27:49;10.73;;;6.18;;
21848;SDS011;11089;49.852;19.700;2023-07-24T12:30:50;9.77;;;6.10;;
21848;SDS011;11089;49.852;19.700;2023-07-24T12:33:51;9.98;;;6.63;;
21848;SDS011;11089;49.852;19.700;2023-07-24T12:36:52;9.18;;;6.43;;
21848;SDS011;11089;49.852;19.700;2023-07-24T12:39:54;9.32;;;6.32;;
21848;SDS011;11089;49.852;19.700;2023-07-24T12:42:55;11.10;;;6.60;;
21848;SDS011;11089;49.852;19.700;2023-07-24T12:45:55;12.55;;;7.47;;
21848;SDS011;11089;49.852;19.700;2023-07-24T12:48:56;9.20;;;6.03;;
21848;SDS011;11089;49.852;19.700;2023-07-24T12:51:57;11.18;;;6.72;;
21848;SDS011;11089;49.852;19.700;2023-07-24T12:54:58;10.13;;;6.55;;
21848;SDS011;11089;49.852;19.700;2023-07-24T12:57:59;10.32;;;6.05;;
21848;SDS011;11089;49.852;19.700;2023-07-24T13:01:02;10.77;;;6.78;;
21848;SDS011;11089;49.852;19.700;2023-07-24T13:04:03;9.95;;;6.47;;
21848;SDS011;11089;49.852;19.700;2023-07-24T13:07:04;9.65;;;6.22;;
21848;SDS011;11089;49.852;19.700;2023-07-24T13:10:05;9.88;;;6.07;;
21848;SDS011;11089;49.852;19.700;2023-07-24T13:13:06;11.48;;;7.05;;
21848;SDS011;11089;49.852;19.700;2023-07-24T13:16:09;11.98;;;6.97;;
21848;SDS011;11089;49.852;19.700;2023-07-24T13:19:10;13.25;;;7.53;;
21848;SDS011;11089;49.852;19.700;2023-07-24T13:22:11;11.20;;;6.93;;
21848;SDS011;11089;49.852;19.700;2023-07-24T13:25:12;10.60;;;7.03;;
21848;SDS011;11089;49.852;19.700;2023-07-24T13:28:13;11.73;;;6.88;;
21848;SDS011;11089;49.852;19.700;2023-07-24T13:34:14;10.63;;;6.88;;
21848;SDS011;11089;49.852;19.700;2023-07-24T13:37:18;13.07;;;7.53;;
21848;SDS011;11089;49.852;19.700;2023-07-24T13:40:19;11.60;;;7.03;;
21848;SDS011;11089;49.852;19.700;2023-07-24T13:43:20;12.07;;;7.05;;
21848;SDS011;11089;49.852;19.700;2023-07-24T13:46:21;11.68;;;7.55;;
21848;SDS011;11089;49.852;19.700;2023-07-24T13:49:22;11.20;;;7.22;;
21848;SDS011;11089;49.852;19.700;2023-07-24T13:52:22;10.25;;;6.97;;
21848;SDS011;11089;49.852;19.700;2023-07-24T13:55:23;11.80;;;7.15;;
21848;SDS011;11089;49.852;19.700;2023-07-24T13:58:24;11.48;;;6.97;;
21848;SDS011;11089;49.852;19.700;2023-07-24T14:01:25;9.80;;;6.18;;
21848;SDS011;11089;49.852;19.700;2023-07-24T14:04:26;12.80;;;7.15;;
21848;SDS011;11089;49.852;19.700;2023-07-24T14:07:27;11.85;;;7.75;;
21848;SDS011;11089;49.852;19.700;2023-07-24T14:10:28;12.40;;;7.95;;
21848;SDS011;11089;49.852;19.700;2023-07-24T14:13:28;13.70;;;8.07;;
21848;SDS011;11089;49.852;19.700;2023-07-24T14:16:29;12.98;;;7.30;;
21848;SDS011;11089;49.852;19.700;2023-07-24T14:19:30;11.40;;;7.50;;
21848;SDS011;11089;49.852;19.700;2023-07-24T14:22:31;11.40;;;7.50;;
21848;SDS011;11089;49.852;19.700;2023-07-24T14:25:32;12.90;;;7.00;;
21848;SDS011;11089;49.852;19.700;2023-07-24T14:28:33;11.65;;;7.60;;
21848;SDS011;11089;49.852;19.700;2023-07-24T14:31:34;16.65;;;7.43;;
21848;SDS011;11089;49.852;19.700;2023-07-24T14:34:34;11.40;;;7.28;;
21848;SDS011;11089;49.852;19.700;2023-07-24T14:37:35;11.23;;;7.50;;
21848;SDS011;11089;49.852;19.700;2023-07-24T14:40:36;13.35;;;7.35;;
21848;SDS011;11089;49.852;19.700;2023-07-24T14:43:37;10.02;;;7.22;;
21848;SDS011;11089;49.852;19.700;2023-07-24T14:46:39;16.02;;;8.00;;
21848;SDS011;11089;49.852;19.700;2023-07-24T14:49:40;12.15;;;7.68;;
21848;SDS011;11089;49.852;19.700;2023-07-24T14:52:41;12.55;;;8.13;;
21848;SDS011;11089;49.852;19.700;2023-07-24T14:55:43;12.30;;;7.68;;
21848;SDS011;11089;49.852;19.700;2023-07-24T14:58:44;13.23;;;8.43;;
21848;SDS011;11089;49.852;19.700;2023-07-24T15:01:46;11.88;;;7.75;;
21848;SDS011;11089;49.852;19.700;2023-07-24T15:04:47;13.88;;;8.20;;
21848;SDS011;11089;49.852;19.700;2023-07-24T15:07:48;13.23;;;7.90;;
21848;SDS011;11089;49.852;19.700;2023-07-24T15:10:49;12.43;;;7.57;;
21848;SDS011;11089;49.852;19.700;2023-07-24T15:13:52;12.88;;;7.68;;
21848;SDS011;11089;49.852;19.700;2023-07-24T15:16:55;12.57;;;8.23;;
21848;SDS011;11089;49.852;19.700;2023-07-24T15:19:56;15.05;;;7.57;;
21848;SDS011;11089;49.852;19.700;2023-07-24T15:22:57;13.05;;;8.27;;
21848;SDS011;11089;49.852;19.700;2023-07-24T15:25:58;12.05;;;7.68;;
21848;SDS011;11089;49.852;19.700;2023-07-24T15:28:59;14.13;;;7.40;;
21848;SDS011;11089;49.852;19.700;2023-07-24T15:32:00;15.35;;;8.15;;
21848;SDS011;11089;49.852;19.700;2023-07-24T15:35:01;12.27;;;7.72;;
21848;SDS011;11089;49.852;19.700;2023-07-24T15:38:04;11.23;;;7.40;;
21848;SDS011;11089;49.852;19.700;2023-07-24T15:41:06;14.52;;;8.10;;
21848;SDS011;11089;49.852;19.700;2023-07-24T15:44:06;12.05;;;7.43;;
21848;SDS011;11089;49.852;19.700;2023-07-24T15:47:07;14.30;;;8.25;;
21848;SDS011;11089;49.852;19.700;2023-07-24T15:50:08;12.88;;;7.35;;
21848;SDS011;11089;49.852;19.700;2023-07-24T15:53:09;14.55;;;8.75;;
21848;SDS011;11089;49.852;19.700;2023-07-24T15:56:10;12.85;;;7.82;;
21848;SDS011;11089;49.852;19.700;2023-07-24T15:59:13;13.25;;;7.55;;
21848;SDS011;11089;49.852;19.700;2023-07-24T16:02:14;12.75;;;8.30;;
21848;SDS011;11089;49.852;19.700;2023-07-24T16:05:18;13.65;;;8.43;;
21848;SDS011;11089;49.852;19.700;2023-07-24T16:08:20;15.57;;;8.68;;
21848;SDS011;11089;49.852;19.700;2023-07-24T16:11:21;13.30;;;8.20;;
21848;SDS011;11089;49.852;19.700;2023-07-24T16:14:22;15.57;;;8.60;;
21848;SDS011;11089;49.852;19.700;2023-07-24T16:17:23;14.48;;;8.32;;
21848;SDS011;11089;49.852;19.700;2023-07-24T16:20:24;13.63;;;8.35;;
21848;SDS011;11089;49.852;19.700;2023-07-24T16:23:24;13.50;;;8.18;;
21848;SDS011;11089;49.852;19.700;2023-07-24T16:26:25;18.73;;;9.60;;
21848;SDS011;11089;49.852;19.700;2023-07-24T16:29:26;12.88;;;8.45;;
21848;SDS011;11089;49.852;19.700;2023-07-24T16:32:27;13.98;;;8.13;;
21848;SDS011;11089;49.852;19.700;2023-07-24T16:35:28;13.43;;;8.05;;
21848;SDS011;11089;49.852;19.700;2023-07-24T16:38:29;12.63;;;7.88;;
21848;SDS011;11089;49.852;19.700;2023-07-24T16:41:30;13.38;;;7.95;;
21848;SDS011;11089;49.852;19.700;2023-07-24T16:44:31;13.30;;;8.18;;
21848;SDS011;11089;49.852;19.700;2023-07-24T16:47:32;13.93;;;8.60;;
21848;SDS011;11089;49.852;19.700;2023-07-24T16:50:32;12.15;;;7.35;;
21848;SDS011;11089;49.852;19.700;2023-07-24T16:53:35;13.48;;;8.15;;
21848;SDS011;11089;49.852;19.700;2023-07-24T16:56:36;14.00;;;8.15;;
21848;SDS011;11089;49.852;19.700;2023-07-24T16:59:37;12.98;;;8.02;;
21848;SDS011;11089;49.852;19.700;2023-07-24T17:02:37;13.50;;;8.85;;
21848;SDS011;11089;49.852;19.700;2023-07-24T17:05:38;13.77;;;7.75;;
21848;SDS011;11089;49.852;19.700;2023-07-24T17:08:39;14.27;;;8.48;;
21848;SDS011;11089;49.852;19.700;2023-07-24T17:11:40;15.68;;;8.77;;
21848;SDS011;11089;49.852;19.700;2023-07-24T17:14:41;14.10;;;9.50;;
21848;SDS011;11089;49.852;19.700;2023-07-24T17:17:42;17.75;;;10.68;;
21848;SDS011;11089;49.852;19.700;2023-07-24T17:20:45;17.35;;;10.32;;
21848;SDS011;11089;49.852;19.700;2023-07-24T17:23:46;13.40;;;8.50;;
21848;SDS011;11089;49.852;19.700;2023-07-24T17:26:47;13.55;;;8.77;;
21848;SDS011;11089;49.852;19.700;2023-07-24T17:29:47;11.70;;;7.30;;
21848;SDS011;11089;49.852;19.700;2023-07-24T17:32:49;15.93;;;9.00;;
21848;SDS011;11089;49.852;19.700;2023-07-24T17:35:50;16.15;;;8.40;;
21848;SDS011;11089;49.852;19.700;2023-07-24T17:38:51;13.68;;;7.90;;
21848;SDS011;11089;49.852;19.700;2023-07-24T17:41:51;16.92;;;7.10;;
21848;SDS011;11089;49.852;19.700;2023-07-24T17:44:52;14.00;;;7.63;;
21848;SDS011;11089;49.852;19.700;2023-07-24T17:47:53;16.83;;;7.88;;
21848;SDS011;11089;49.852;19.700;2023-07-24T17:50:54;13.98;;;7.70;;
21848;SDS011;11089;49.852;19.700;2023-07-24T17:53:55;14.57;;;7.47;;
21848;SDS011;11089;49.852;19.700;2023-07-24T17:56:57;14.93;;;8.27;;